Perth, North Dakota
Current Conditions -  °F | °C
As of 10:55 PM on Sunday 21 Dec 2014 (Local Time) from K06D Reporting Station
Moderate Fog Moderate Fog  
Wind Chill: 17°   Ceiling: 200
Heat Index: 27°   Visibility: 0.5mi
Dew Point: 27°   Wind: 10mph
Humidity: 100%   Direction: 170°S
Pressure: 29.49"   Gusts: 18mph
Location:  48.72°N, 99.46°W
Report Text: K06D 220455Z AUTO 17009G16KT 1/2SM FZFG OVC002 M03/M03 A2949 RMK AO2
Loading
Personal Weather Stations






























Interactive Weather Map New forecast layout! Learn more

10-Day Weather Forecast

Advertisements
Track Severe Weather on mobile